sensor_id;sensor_type;location;lat;lon;timestamp;temperature;humidity
68801;SHT31;55784;50.734;7.086;2022-09-09T00:04:27;17.15;80.55
68801;SHT31;55784;50.734;7.086;2022-09-09T00:07:14;17.10;80.67
68801;SHT31;55784;50.734;7.086;2022-09-09T00:10:07;17.06;80.99
68801;SHT31;55784;50.734;7.086;2022-09-09T00:15:18;16.99;81.39
68801;SHT31;55784;50.734;7.086;2022-09-09T00:20:48;16.89;81.91
68801;SHT31;55784;50.734;7.086;2022-09-09T00:23:30;16.85;82.11
68801;SHT31;55784;50.734;7.086;2022-09-09T00:28:25;16.75;82.50
68801;SHT31;55784;50.734;7.086;2022-09-09T00:30:52;16.75;82.36
68801;SHT31;55784;50.734;7.086;2022-09-09T00:33:20;16.71;82.63
68801;SHT31;55784;50.734;7.086;2022-09-09T00:35:57;16.64;82.59
68801;SHT31;55784;50.734;7.086;2022-09-09T00:38:36;16.62;82.87
68801;SHT31;55784;50.734;7.086;2022-09-09T00:41:19;16.62;82.73
68801;SHT31;55784;50.734;7.086;2022-09-09T00:43:57;16.54;83.02
68801;SHT31;55784;50.734;7.086;2022-09-09T00:49:27;16.47;83.33
68801;SHT31;55784;50.734;7.086;2022-09-09T00:57:33;16.45;83.67
68801;SHT31;55784;50.734;7.086;2022-09-09T01:02:52;16.51;83.68
68801;SHT31;55784;50.734;7.086;2022-09-09T01:05:41;16.54;83.65
68801;SHT31;55784;50.734;7.086;2022-09-09T01:08:14;16.51;83.65
68801;SHT31;55784;50.734;7.086;2022-09-09T01:10:51;16.55;83.59
68801;SHT31;55784;50.734;7.086;2022-09-09T01:13:27;16.62;83.34
68801;SHT31;55784;50.734;7.086;2022-09-09T01:15:57;16.64;83.23
68801;SHT31;55784;50.734;7.086;2022-09-09T01:18:27;16.65;83.17
68801;SHT31;55784;50.734;7.086;2022-09-09T01:24:29;16.73;82.81
68801;SHT31;55784;50.734;7.086;2022-09-09T01:26:59;16.71;82.82
68801;SHT31;55784;50.734;7.086;2022-09-09T01:29:26;16.71;82.87
68801;SHT31;55784;50.734;7.086;2022-09-09T01:32:03;16.71;83.18
68801;SHT31;55784;50.734;7.086;2022-09-09T01:34:47;16.67;83.21
68801;SHT31;55784;50.734;7.086;2022-09-09T01:37:12;16.65;83.22
68801;SHT31;55784;50.734;7.086;2022-09-09T01:39:40;16.62;83.41
68801;SHT31;55784;50.734;7.086;2022-09-09T01:42:09;16.65;83.58
68801;SHT31;55784;50.734;7.086;2022-09-09T01:44:35;16.69;83.22
68801;SHT31;55784;50.734;7.086;2022-09-09T01:47:01;16.76;83.15
68801;SHT31;55784;50.734;7.086;2022-09-09T01:49:27;16.88;82.69
68801;SHT31;55784;50.734;7.086;2022-09-09T01:51:54;16.95;82.30
68801;SHT31;55784;50.734;7.086;2022-09-09T01:54:22;16.99;81.85
68801;SHT31;55784;50.734;7.086;2022-09-09T01:57:06;17.09;81.50
68801;SHT31;55784;50.734;7.086;2022-09-09T01:59:48;17.10;81.45
68801;SHT31;55784;50.734;7.086;2022-09-09T02:02:19;17.10;81.33
68801;SHT31;55784;50.734;7.086;2022-09-09T02:04:54;17.05;81.18
68801;SHT31;55784;50.734;7.086;2022-09-09T02:07:48;17.12;80.90
68801;SHT31;55784;50.734;7.086;2022-09-09T02:10:26;17.08;81.14
68801;SHT31;55784;50.734;7.086;2022-09-09T02:13:09;17.09;80.89
68801;SHT31;55784;50.734;7.086;2022-09-09T02:18:39;17.10;80.80
68801;SHT31;55784;50.734;7.086;2022-09-09T02:21:06;17.10;80.85
68801;SHT31;55784;50.734;7.086;2022-09-09T02:23:33;17.19;80.64
68801;SHT31;55784;50.734;7.086;2022-09-09T02:26:00;17.22;80.55
68801;SHT31;55784;50.734;7.086;2022-09-09T02:28:26;17.24;80.33
68801;SHT31;55784;50.734;7.086;2022-09-09T02:30:54;17.29;80.12
68801;SHT31;55784;50.734;7.086;2022-09-09T02:33:22;17.30;79.95
68801;SHT31;55784;50.734;7.086;2022-09-09T02:35:51;17.33;79.82
68801;SHT31;55784;50.734;7.086;2022-09-09T02:38:17;17.37;79.67
68801;SHT31;55784;50.734;7.086;2022-09-09T02:40:44;17.42;79.37
68801;SHT31;55784;50.734;7.086;2022-09-09T02:43:10;17.40;79.36
68801;SHT31;55784;50.734;7.086;2022-09-09T02:45:48;17.40;79.27
68801;SHT31;55784;50.734;7.086;2022-09-09T02:48:20;17.40;78.86
68801;SHT31;55784;50.734;7.086;2022-09-09T02:51:06;17.39;78.79
68801;SHT31;55784;50.734;7.086;2022-09-09T02:56:23;17.46;78.52
68801;SHT31;55784;50.734;7.086;2022-09-09T02:58:50;17.49;78.56
68801;SHT31;55784;50.734;7.086;2022-09-09T03:01:17;17.43;78.47
68801;SHT31;55784;50.734;7.086;2022-09-09T03:03:43;17.46;78.58
68801;SHT31;55784;50.734;7.086;2022-09-09T03:06:09;17.43;78.67
68801;SHT31;55784;50.734;7.086;2022-09-09T03:08:37;17.47;78.75
68801;SHT31;55784;50.734;7.086;2022-09-09T03:11:02;17.43;78.90
68801;SHT31;55784;50.734;7.086;2022-09-09T03:13:28;17.39;78.89
68801;SHT31;55784;50.734;7.086;2022-09-09T03:15:54;17.40;79.18
68801;SHT31;55784;50.734;7.086;2022-09-09T03:18:19;17.39;79.21
68801;SHT31;55784;50.734;7.086;2022-09-09T03:20:45;17.42;79.17
68801;SHT31;55784;50.734;7.086;2022-09-09T03:23:13;17.34;79.42
68801;SHT31;55784;50.734;7.086;2022-09-09T03:25:39;17.34;79.47
68801;SHT31;55784;50.734;7.086;2022-09-09T03:28:04;17.36;79.56
68801;SHT31;55784;50.734;7.086;2022-09-09T03:30:30;17.36;79.51
68801;SHT31;55784;50.734;7.086;2022-09-09T03:32:55;17.34;79.49
68801;SHT31;55784;50.734;7.086;2022-09-09T03:35:21;17.32;79.65
68801;SHT31;55784;50.734;7.086;2022-09-09T03:37:46;17.34;79.76
68801;SHT31;55784;50.734;7.086;2022-09-09T03:40:12;17.37;79.71
68801;SHT31;55784;50.734;7.086;2022-09-09T03:42:38;17.36;79.85
68801;SHT31;55784;50.734;7.086;2022-09-09T03:45:05;17.34;80.33
68801;SHT31;55784;50.734;7.086;2022-09-09T03:47:31;17.34;80.28
68801;SHT31;55784;50.734;7.086;2022-09-09T03:49:57;17.33;80.33
68801;SHT31;55784;50.734;7.086;2022-09-09T03:52:22;17.32;80.48
68801;SHT31;55784;50.734;7.086;2022-09-09T03:54:50;17.29;80.58
68801;SHT31;55784;50.734;7.086;2022-09-09T03:57:16;17.29;80.74
68801;SHT31;55784;50.734;7.086;2022-09-09T03:59:42;17.26;80.81
68801;SHT31;55784;50.734;7.086;2022-09-09T04:02:07;17.34;80.67
68801;SHT31;55784;50.734;7.086;2022-09-09T04:04:34;17.34;80.53
68801;SHT31;55784;50.734;7.086;2022-09-09T04:06:59;17.36;80.37
68801;SHT31;55784;50.734;7.086;2022-09-09T04:09:24;17.39;80.32
68801;SHT31;55784;50.734;7.086;2022-09-09T04:11:50;17.40;80.36
68801;SHT31;55784;50.734;7.086;2022-09-09T04:14:15;17.39;80.41
68801;SHT31;55784;50.734;7.086;2022-09-09T04:16:41;17.43;80.37
68801;SHT31;55784;50.734;7.086;2022-09-09T04:19:10;17.44;80.23
68801;SHT31;55784;50.734;7.086;2022-09-09T04:21:38;17.43;80.23
68801;SHT31;55784;50.734;7.086;2022-09-09T04:24:05;17.43;80.24
68801;SHT31;55784;50.734;7.086;2022-09-09T04:26:31;17.46;80.07
68801;SHT31;55784;50.734;7.086;2022-09-09T04:28:56;17.46;80.01
68801;SHT31;55784;50.734;7.086;2022-09-09T04:31:22;17.43;80.02
68801;SHT31;55784;50.734;7.086;2022-09-09T04:33:51;17.44;80.04
68801;SHT31;55784;50.734;7.086;2022-09-09T04:36:18;17.44;80.07
68801;SHT31;55784;50.734;7.086;2022-09-09T04:38:44;17.47;79.90
68801;SHT31;55784;50.734;7.086;2022-09-09T04:41:10;17.49;79.82
68801;SHT31;55784;50.734;7.086;2022-09-09T04:43:36;17.50;79.80
68801;SHT31;55784;50.734;7.086;2022-09-09T04:46:02;17.51;79.75
68801;SHT31;55784;50.734;7.086;2022-09-09T04:48:27;17.54;79.54
68801;SHT31;55784;50.734;7.086;2022-09-09T04:53:21;17.54;79.50
68801;SHT31;55784;50.734;7.086;2022-09-09T04:55:47;17.53;79.48
68801;SHT31;55784;50.734;7.086;2022-09-09T04:58:12;17.53;79.18
68801;SHT31;55784;50.734;7.086;2022-09-09T05:00:38;17.49;79.45
68801;SHT31;55784;50.734;7.086;2022-09-09T05:03:06;17.47;79.36
68801;SHT31;55784;50.734;7.086;2022-09-09T05:05:34;17.46;79.57
68801;SHT31;55784;50.734;7.086;2022-09-09T05:08:07;17.46;79.41
68801;SHT31;55784;50.734;7.086;2022-09-09T05:10:37;17.43;79.49
68801;SHT31;55784;50.734;7.086;2022-09-09T05:13:02;17.43;79.65
68801;SHT31;55784;50.734;7.086;2022-09-09T05:15:28;17.49;79.27
68801;SHT31;55784;50.734;7.086;2022-09-09T05:17:57;17.50;79.26
68801;SHT31;55784;50.734;7.086;2022-09-09T05:20:24;17.54;79.19
68801;SHT31;55784;50.734;7.086;2022-09-09T05:22:53;17.59;79.08
68801;SHT31;55784;50.734;7.086;2022-09-09T05:25:19;17.59;78.85
68801;SHT31;55784;50.734;7.086;2022-09-09T05:27:44;17.69;78.51
68801;SHT31;55784;50.734;7.086;2022-09-09T05:30:10;17.71;78.48
68801;SHT31;55784;50.734;7.086;2022-09-09T05:32:36;17.69;78.49
68801;SHT31;55784;50.734;7.086;2022-09-09T05:35:03;17.67;78.59
68801;SHT31;55784;50.734;7.086;2022-09-09T05:37:30;17.64;78.35
68801;SHT31;55784;50.734;7.086;2022-09-09T05:39:56;17.67;78.06
68801;SHT31;55784;50.734;7.086;2022-09-09T05:42:21;17.71;77.82
68801;SHT31;55784;50.734;7.086;2022-09-09T05:44:47;17.75;77.76
68801;SHT31;55784;50.734;7.086;2022-09-09T05:47:12;17.85;77.60
68801;SHT31;55784;50.734;7.086;2022-09-09T05:49:37;17.87;77.46
68801;SHT31;55784;50.734;7.086;2022-09-09T05:52:03;17.90;77.42
68801;SHT31;55784;50.734;7.086;2022-09-09T05:54:29;17.98;77.14
68801;SHT31;55784;50.734;7.086;2022-09-09T05:56:55;18.00;77.07
68801;SHT31;55784;50.734;7.086;2022-09-09T05:59:20;18.04;77.32
68801;SHT31;55784;50.734;7.086;2022-09-09T06:01:48;18.05;76.93
68801;SHT31;55784;50.734;7.086;2022-09-09T06:04:13;18.12;76.49
68801;SHT31;55784;50.734;7.086;2022-09-09T06:06:39;18.18;76.15
68801;SHT31;55784;50.734;7.086;2022-09-09T06:09:06;18.19;75.77
68801;SHT31;55784;50.734;7.086;2022-09-09T06:11:35;18.26;75.32
68801;SHT31;55784;50.734;7.086;2022-09-09T06:14:01;18.39;75.05
68801;SHT31;55784;50.734;7.086;2022-09-09T06:16:32;18.53;74.87
68801;SHT31;55784;50.734;7.086;2022-09-09T06:19:04;18.62;73.96
68801;SHT31;55784;50.734;7.086;2022-09-09T06:21:31;18.62;73.53
68801;SHT31;55784;50.734;7.086;2022-09-09T06:23:58;18.73;73.65
68801;SHT31;55784;50.734;7.086;2022-09-09T06:26:35;18.77;73.13
68801;SHT31;55784;50.734;7.086;2022-09-09T06:29:01;18.82;73.04
68801;SHT31;55784;50.734;7.086;2022-09-09T06:31:30;18.77;72.58
68801;SHT31;55784;50.734;7.086;2022-09-09T06:33:57;18.76;72.67
68801;SHT31;55784;50.734;7.086;2022-09-09T06:36:25;18.82;72.47
68801;SHT31;55784;50.734;7.086;2022-09-09T06:38:50;18.79;72.22
68801;SHT31;55784;50.734;7.086;2022-09-09T06:41:18;18.66;72.29
68801;SHT31;55784;50.734;7.086;2022-09-09T06:43:45;18.62;72.38
68801;SHT31;55784;50.734;7.086;2022-09-09T06:46:12;18.69;72.52
68801;SHT31;55784;50.734;7.086;2022-09-09T06:48:41;18.76;72.11
68801;SHT31;55784;50.734;7.086;2022-09-09T06:51:11;18.70;72.25
68801;SHT31;55784;50.734;7.086;2022-09-09T06:53:38;18.76;72.00
68801;SHT31;55784;50.734;7.086;2022-09-09T06:58:35;18.92;71.06
68801;SHT31;55784;50.734;7.086;2022-09-09T07:01:07;19.02;71.06
68801;SHT31;55784;50.734;7.086;2022-09-09T07:03:33;18.99;71.04
68801;SHT31;55784;50.734;7.086;2022-09-09T07:05:59;19.03;70.96
68801;SHT31;55784;50.734;7.086;2022-09-09T07:08:24;19.03;70.67
68801;SHT31;55784;50.734;7.086;2022-09-09T07:10:51;19.10;70.31
68801;SHT31;55784;50.734;7.086;2022-09-09T07:13:23;19.13;70.01
68801;SHT31;55784;50.734;7.086;2022-09-09T07:15:50;19.13;69.87
68801;SHT31;55784;50.734;7.086;2022-09-09T07:18:15;19.14;69.36
68801;SHT31;55784;50.734;7.086;2022-09-09T07:20:41;19.19;69.12
68801;SHT31;55784;50.734;7.086;2022-09-09T07:23:06;19.30;67.75
68801;SHT31;55784;50.734;7.086;2022-09-09T07:25:31;19.37;67.58
68801;SHT31;55784;50.734;7.086;2022-09-09T07:27:58;19.41;66.27
68801;SHT31;55784;50.734;7.086;2022-09-09T07:30:24;19.57;66.33
68801;SHT31;55784;50.734;7.086;2022-09-09T07:32:53;19.74;66.66
68801;SHT31;55784;50.734;7.086;2022-09-09T07:35:22;19.81;64.48
68801;SHT31;55784;50.734;7.086;2022-09-09T07:37:47;19.88;64.63
68801;SHT31;55784;50.734;7.086;2022-09-09T07:40:12;20.06;64.58
68801;SHT31;55784;50.734;7.086;2022-09-09T07:42:38;20.33;63.87
68801;SHT31;55784;50.734;7.086;2022-09-09T07:45:04;20.52;62.91
68801;SHT31;55784;50.734;7.086;2022-09-09T07:47:30;20.81;61.94
68801;SHT31;55784;50.734;7.086;2022-09-09T07:49:55;20.94;61.96
68801;SHT31;55784;50.734;7.086;2022-09-09T07:52:21;20.84;61.84
68801;SHT31;55784;50.734;7.086;2022-09-09T07:54:46;20.74;62.30
68801;SHT31;55784;50.734;7.086;2022-09-09T07:57:12;20.73;62.13
68801;SHT31;55784;50.734;7.086;2022-09-09T07:59:37;20.62;61.61
68801;SHT31;55784;50.734;7.086;2022-09-09T08:02:03;20.59;61.74
68801;SHT31;55784;50.734;7.086;2022-09-09T08:04:29;20.60;62.16
68801;SHT31;55784;50.734;7.086;2022-09-09T08:06:56;20.56;61.08
68801;SHT31;55784;50.734;7.086;2022-09-09T08:09:23;20.42;61.72
68801;SHT31;55784;50.734;7.086;2022-09-09T08:11:54;20.53;61.21
68801;SHT31;55784;50.734;7.086;2022-09-09T08:14:22;20.66;61.98
68801;SHT31;55784;50.734;7.086;2022-09-09T08:16:49;20.88;60.66
68801;SHT31;55784;50.734;7.086;2022-09-09T08:19:16;21.08;60.04
68801;SHT31;55784;50.734;7.086;2022-09-09T08:21:43;21.21;59.59
68801;SHT31;55784;50.734;7.086;2022-09-09T08:24:10;21.42;58.92
68801;SHT31;55784;50.734;7.086;2022-09-09T08:26:41;21.62;58.70
68801;SHT31;55784;50.734;7.086;2022-09-09T08:29:08;21.82;58.03
68801;SHT31;55784;50.734;7.086;2022-09-09T08:31:56;21.93;57.20
68801;SHT31;55784;50.734;7.086;2022-09-09T08:34:23;22.32;55.70
68801;SHT31;55784;50.734;7.086;2022-09-09T08:36:49;22.46;54.44
68801;SHT31;55784;50.734;7.086;2022-09-09T08:39:17;22.44;54.76
68801;SHT31;55784;50.734;7.086;2022-09-09T08:58:17;23.02;53.19
68801;SHT31;55784;50.734;7.086;2022-09-09T09:06:26;23.34;52.07
68801;SHT31;55784;50.734;7.086;2022-09-09T09:11:35;23.82;50.29
68801;SHT31;55784;50.734;7.086;2022-09-09T09:14:08;23.69;50.83
68801;SHT31;55784;50.734;7.086;2022-09-09T09:16:59;23.76;50.30
68801;SHT31;55784;50.734;7.086;2022-09-09T09:19:27;23.75;50.44
68801;SHT31;55784;50.734;7.086;2022-09-09T09:22:25;23.83;50.18
68801;SHT31;55784;50.734;7.086;2022-09-09T09:27:33;24.21;48.90
68801;SHT31;55784;50.734;7.086;2022-09-09T09:30:01;24.24;48.27
68801;SHT31;55784;50.734;7.086;2022-09-09T09:32:30;24.43;48.42
68801;SHT31;55784;50.734;7.086;2022-09-09T09:34:58;24.18;47.62
68801;SHT31;55784;50.734;7.086;2022-09-09T09:37:31;24.03;48.23
68801;SHT31;55784;50.734;7.086;2022-09-09T09:42:36;24.05;47.81
68801;SHT31;55784;50.734;7.086;2022-09-09T09:45:17;23.75;48.86
68801;SHT31;55784;50.734;7.086;2022-09-09T09:47:45;23.86;48.82
68801;SHT31;55784;50.734;7.086;2022-09-09T09:50:19;24.02;48.32
68801;SHT31;55784;50.734;7.086;2022-09-09T09:52:54;24.13;48.54
68801;SHT31;55784;50.734;7.086;2022-09-09T09:55:21;24.38;48.09
68801;SHT31;55784;50.734;7.086;2022-09-09T09:57:47;24.26;48.11
68801;SHT31;55784;50.734;7.086;2022-09-09T10:02:43;24.36;48.62
68801;SHT31;55784;50.734;7.086;2022-09-09T10:05:26;24.30;48.32
68801;SHT31;55784;50.734;7.086;2022-09-09T10:08:10;24.24;48.11
68801;SHT31;55784;50.734;7.086;2022-09-09T10:10:48;23.96;48.92
68801;SHT31;55784;50.734;7.086;2022-09-09T10:13:31;23.82;49.04
68801;SHT31;55784;50.734;7.086;2022-09-09T10:16:17;23.79;49.60
68801;SHT31;55784;50.734;7.086;2022-09-09T10:21:24;23.73;49.54
68801;SHT31;55784;50.734;7.086;2022-09-09T10:26:54;24.02;48.80
68801;SHT31;55784;50.734;7.086;2022-09-09T10:32:23;23.66;49.46
68801;SHT31;55784;50.734;7.086;2022-09-09T10:34:56;23.26;50.10
68801;SHT31;55784;50.734;7.086;2022-09-09T10:37:54;23.49;49.97
68801;SHT31;55784;50.734;7.086;2022-09-09T10:40:32;23.49;49.90
68801;SHT31;55784;50.734;7.086;2022-09-09T10:43:25;23.62;49.67
68801;SHT31;55784;50.734;7.086;2022-09-09T10:49:27;23.80;49.51
68801;SHT31;55784;50.734;7.086;2022-09-09T10:57:16;24.12;48.61
68801;SHT31;55784;50.734;7.086;2022-09-09T10:59:55;24.30;48.81
68801;SHT31;55784;50.734;7.086;2022-09-09T11:02:28;24.54;48.46
68801;SHT31;55784;50.734;7.086;2022-09-09T11:05:05;24.63;47.66
68801;SHT31;55784;50.734;7.086;2022-09-09T11:07:56;24.95;47.14
68801;SHT31;55784;50.734;7.086;2022-09-09T11:10:40;25.19;46.64
68801;SHT31;55784;50.734;7.086;2022-09-09T11:13:19;25.25;46.80
68801;SHT31;55784;50.734;7.086;2022-09-09T11:15:50;24.87;46.60
68801;SHT31;55784;50.734;7.086;2022-09-09T11:18:21;24.92;46.78
68801;SHT31;55784;50.734;7.086;2022-09-09T11:20:51;24.99;47.44
68801;SHT31;55784;50.734;7.086;2022-09-09T11:23:34;25.08;47.05
68801;SHT31;55784;50.734;7.086;2022-09-09T11:26:04;25.19;46.48
68801;SHT31;55784;50.734;7.086;2022-09-09T11:34:16;25.93;45.25
68801;SHT31;55784;50.734;7.086;2022-09-09T11:44:37;25.42;45.65
68801;SHT31;55784;50.734;7.086;2022-09-09T11:47:03;25.77;45.31
68801;SHT31;55784;50.734;7.086;2022-09-09T11:54:49;26.00;44.44
68801;SHT31;55784;50.734;7.086;2022-09-09T11:57:30;25.90;44.53
68801;SHT31;55784;50.734;7.086;2022-09-09T11:59:56;25.70;44.79
68801;SHT31;55784;50.734;7.086;2022-09-09T12:02:27;25.59;44.85
68801;SHT31;55784;50.734;7.086;2022-09-09T12:07:47;25.50;44.75
68801;SHT31;55784;50.734;7.086;2022-09-09T12:10:32;25.62;44.30
68801;SHT31;55784;50.734;7.086;2022-09-09T12:13:20;25.33;44.45
68801;SHT31;55784;50.734;7.086;2022-09-09T12:15:52;25.47;44.51
68801;SHT31;55784;50.734;7.086;2022-09-09T12:18:31;25.54;44.71
68801;SHT31;55784;50.734;7.086;2022-09-09T12:23:57;25.33;43.48
68801;SHT31;55784;50.734;7.086;2022-09-09T12:29:22;25.30;44.89
68801;SHT31;55784;50.734;7.086;2022-09-09T12:34:59;24.96;45.35
68801;SHT31;55784;50.734;7.086;2022-09-09T12:37:54;24.72;45.86
68801;SHT31;55784;50.734;7.086;2022-09-09T12:40:43;24.77;45.61
68801;SHT31;55784;50.734;7.086;2022-09-09T12:46:49;25.04;45.44
68801;SHT31;55784;50.734;7.086;2022-09-09T12:49:38;25.02;45.16
68801;SHT31;55784;50.734;7.086;2022-09-09T12:52:07;25.05;45.11
68801;SHT31;55784;50.734;7.086;2022-09-09T12:54:36;24.87;45.45
68801;SHT31;55784;50.734;7.086;2022-09-09T12:57:02;24.46;45.91
68801;SHT31;55784;50.734;7.086;2022-09-09T12:59:37;24.38;46.89
68801;SHT31;55784;50.734;7.086;2022-09-09T13:02:16;24.14;47.61
68801;SHT31;55784;50.734;7.086;2022-09-09T13:04:42;24.05;47.93
68801;SHT31;55784;50.734;7.086;2022-09-09T13:07:09;24.09;47.92
68801;SHT31;55784;50.734;7.086;2022-09-09T13:09:35;24.16;47.55
68801;SHT31;55784;50.734;7.086;2022-09-09T13:12:00;24.20;47.57
68801;SHT31;55784;50.734;7.086;2022-09-09T13:14:35;24.40;46.72
68801;SHT31;55784;50.734;7.086;2022-09-09T13:17:06;24.51;46.47
68801;SHT31;55784;50.734;7.086;2022-09-09T13:19:36;24.23;47.19
68801;SHT31;55784;50.734;7.086;2022-09-09T13:22:29;24.09;47.70
68801;SHT31;55784;50.734;7.086;2022-09-09T13:25:13;23.82;52.14
68801;SHT31;55784;50.734;7.086;2022-09-09T13:27:52;23.76;53.80
68801;SHT31;55784;50.734;7.086;2022-09-09T13:30:22;23.73;53.73
68801;SHT31;55784;50.734;7.086;2022-09-09T13:36:06;24.44;52.85
68801;SHT31;55784;50.734;7.086;2022-09-09T13:38:33;24.57;52.83
68801;SHT31;55784;50.734;7.086;2022-09-09T13:41:03;24.88;51.81
68801;SHT31;55784;50.734;7.086;2022-09-09T13:43:32;24.96;50.25
68801;SHT31;55784;50.734;7.086;2022-09-09T13:46:01;25.35;48.42
68801;SHT31;55784;50.734;7.086;2022-09-09T13:48:28;25.11;48.25
68801;SHT31;55784;50.734;7.086;2022-09-09T13:51:02;25.20;48.08
68801;SHT31;55784;50.734;7.086;2022-09-09T13:53:30;25.16;47.98
68801;SHT31;55784;50.734;7.086;2022-09-09T13:55:56;25.04;48.43
68801;SHT31;55784;50.734;7.086;2022-09-09T13:58:22;24.84;48.71
68801;SHT31;55784;50.734;7.086;2022-09-09T14:00:49;24.75;49.14
68801;SHT31;55784;50.734;7.086;2022-09-09T14:03:15;25.14;48.39
68801;SHT31;55784;50.734;7.086;2022-09-09T14:05:41;25.08;48.30
68801;SHT31;55784;50.734;7.086;2022-09-09T14:08:07;24.85;48.87
68801;SHT31;55784;50.734;7.086;2022-09-09T14:10:36;24.84;48.86
68801;SHT31;55784;50.734;7.086;2022-09-09T14:13:02;24.69;48.99
68801;SHT31;55784;50.734;7.086;2022-09-09T14:15:28;24.75;49.20
68801;SHT31;55784;50.734;7.086;2022-09-09T14:17:54;24.81;50.25
68801;SHT31;55784;50.734;7.086;2022-09-09T14:20:20;24.79;49.71
68801;SHT31;55784;50.734;7.086;2022-09-09T14:22:45;25.02;49.19
68801;SHT31;55784;50.734;7.086;2022-09-09T14:25:11;25.52;47.98
68801;SHT31;55784;50.734;7.086;2022-09-09T14:27:39;25.39;48.03
68801;SHT31;55784;50.734;7.086;2022-09-09T14:30:13;25.50;47.75
68801;SHT31;55784;50.734;7.086;2022-09-09T14:32:38;25.42;47.93
68801;SHT31;55784;50.734;7.086;2022-09-09T14:35:04;25.07;48.73
68801;SHT31;55784;50.734;7.086;2022-09-09T14:37:29;24.94;49.33
68801;SHT31;55784;50.734;7.086;2022-09-09T14:39:56;24.98;48.96
68801;SHT31;55784;50.734;7.086;2022-09-09T14:42:21;25.28;48.22
68801;SHT31;55784;50.734;7.086;2022-09-09T14:44:47;25.28;48.00
68801;SHT31;55784;50.734;7.086;2022-09-09T14:47:13;25.26;48.39
68801;SHT31;55784;50.734;7.086;2022-09-09T14:49:38;25.42;48.38
68801;SHT31;55784;50.734;7.086;2022-09-09T14:52:04;25.43;48.49
68801;SHT31;55784;50.734;7.086;2022-09-09T14:54:30;25.58;48.35
68801;SHT31;55784;50.734;7.086;2022-09-09T14:56:59;25.29;48.52
68801;SHT31;55784;50.734;7.086;2022-09-09T14:59:25;25.16;49.05
68801;SHT31;55784;50.734;7.086;2022-09-09T15:01:50;25.16;49.10
68801;SHT31;55784;50.734;7.086;2022-09-09T15:04:15;24.84;50.10
68801;SHT31;55784;50.734;7.086;2022-09-09T15:06:42;24.71;50.07
68801;SHT31;55784;50.734;7.086;2022-09-09T15:11:48;24.28;51.42
68801;SHT31;55784;50.734;7.086;2022-09-09T15:17:09;24.16;51.41
68801;SHT31;55784;50.734;7.086;2022-09-09T15:19:34;24.02;51.84
68801;SHT31;55784;50.734;7.086;2022-09-09T15:22:01;23.90;52.65
68801;SHT31;55784;50.734;7.086;2022-09-09T15:24:26;23.80;53.27
68801;SHT31;55784;50.734;7.086;2022-09-09T15:26:51;23.67;54.06
68801;SHT31;55784;50.734;7.086;2022-09-09T15:29:17;23.61;53.59
68801;SHT31;55784;50.734;7.086;2022-09-09T15:31:42;23.59;54.72
68801;SHT31;55784;50.734;7.086;2022-09-09T15:34:07;23.55;54.35
68801;SHT31;55784;50.734;7.086;2022-09-09T15:36:38;23.39;54.35
68801;SHT31;55784;50.734;7.086;2022-09-09T15:39:06;23.28;54.76
68801;SHT31;55784;50.734;7.086;2022-09-09T15:41:32;23.05;56.06
68801;SHT31;55784;50.734;7.086;2022-09-09T15:43:57;22.98;58.38
68801;SHT31;55784;50.734;7.086;2022-09-09T15:46:34;22.61;60.54
68801;SHT31;55784;50.734;7.086;2022-09-09T15:51:29;22.47;60.25
68801;SHT31;55784;50.734;7.086;2022-09-09T15:53:57;22.39;59.84
68801;SHT31;55784;50.734;7.086;2022-09-09T15:56:24;22.40;60.59
68801;SHT31;55784;50.734;7.086;2022-09-09T15:58:50;22.37;59.39
68801;SHT31;55784;50.734;7.086;2022-09-09T16:01:17;22.40;59.25
68801;SHT31;55784;50.734;7.086;2022-09-09T16:03:44;22.47;58.87
68801;SHT31;55784;50.734;7.086;2022-09-09T16:06:15;22.46;58.92
68801;SHT31;55784;50.734;7.086;2022-09-09T16:08:43;22.56;60.63
68801;SHT31;55784;50.734;7.086;2022-09-09T16:11:36;22.49;60.30
68801;SHT31;55784;50.734;7.086;2022-09-09T16:14:02;22.56;60.28
68801;SHT31;55784;50.734;7.086;2022-09-09T16:16:32;22.41;59.62
68801;SHT31;55784;50.734;7.086;2022-09-09T16:19:05;22.35;60.13
68801;SHT31;55784;50.734;7.086;2022-09-09T16:21:33;22.30;60.44
68801;SHT31;55784;50.734;7.086;2022-09-09T16:24:01;22.20;60.15
68801;SHT31;55784;50.734;7.086;2022-09-09T16:26:28;22.17;60.44
68801;SHT31;55784;50.734;7.086;2022-09-09T16:28:58;22.10;60.62
68801;SHT31;55784;50.734;7.086;2022-09-09T16:31:26;22.08;60.29
68801;SHT31;55784;50.734;7.086;2022-09-09T16:33:52;21.96;59.73
68801;SHT31;55784;50.734;7.086;2022-09-09T16:36:20;21.90;59.71
68801;SHT31;55784;50.734;7.086;2022-09-09T16:38:47;21.83;59.25
68801;SHT31;55784;50.734;7.086;2022-09-09T16:41:13;21.81;61.33
68801;SHT31;55784;50.734;7.086;2022-09-09T16:43:44;21.59;63.38
68801;SHT31;55784;50.734;7.086;2022-09-09T16:46:13;21.34;63.92
68801;SHT31;55784;50.734;7.086;2022-09-09T16:48:41;21.20;65.77
68801;SHT31;55784;50.734;7.086;2022-09-09T16:51:12;21.10;67.42
68801;SHT31;55784;50.734;7.086;2022-09-09T16:53:39;20.84;68.70
68801;SHT31;55784;50.734;7.086;2022-09-09T16:56:06;20.87;68.56
68801;SHT31;55784;50.734;7.086;2022-09-09T16:58:31;20.90;69.44
68801;SHT31;55784;50.734;7.086;2022-09-09T17:00:58;20.87;70.69
68801;SHT31;55784;50.734;7.086;2022-09-09T17:03:27;20.88;70.38
68801;SHT31;55784;50.734;7.086;2022-09-09T17:05:53;20.87;70.76
68801;SHT31;55784;50.734;7.086;2022-09-09T17:08:25;20.86;70.82
68801;SHT31;55784;50.734;7.086;2022-09-09T17:10:50;20.81;70.62
68801;SHT31;55784;50.734;7.086;2022-09-09T17:13:16;20.81;70.60
68801;SHT31;55784;50.734;7.086;2022-09-09T17:15:59;20.83;70.38
68801;SHT31;55784;50.734;7.086;2022-09-09T17:18:31;20.76;70.02
68801;SHT31;55784;50.734;7.086;2022-09-09T17:21:25;20.66;70.06
68801;SHT31;55784;50.734;7.086;2022-09-09T17:23:55;20.57;71.68
68801;SHT31;55784;50.734;7.086;2022-09-09T17:26:32;20.57;71.90
68801;SHT31;55784;50.734;7.086;2022-09-09T17:29:20;20.50;71.32
68801;SHT31;55784;50.734;7.086;2022-09-09T17:31:50;20.43;72.21
68801;SHT31;55784;50.734;7.086;2022-09-09T17:34:25;20.33;72.32
68801;SHT31;55784;50.734;7.086;2022-09-09T17:36:54;20.26;72.93
68801;SHT31;55784;50.734;7.086;2022-09-09T17:39:48;20.19;73.66
68801;SHT31;55784;50.734;7.086;2022-09-09T17:42:13;20.02;73.21
68801;SHT31;55784;50.734;7.086;2022-09-09T17:44:39;19.92;74.24
68801;SHT31;55784;50.734;7.086;2022-09-09T17:47:07;19.81;74.36
68801;SHT31;55784;50.734;7.086;2022-09-09T17:49:32;19.78;74.53
68801;SHT31;55784;50.734;7.086;2022-09-09T17:51:58;19.74;74.32
68801;SHT31;55784;50.734;7.086;2022-09-09T17:54:24;19.70;74.11
68801;SHT31;55784;50.734;7.086;2022-09-09T17:56:49;19.72;73.68
68801;SHT31;55784;50.734;7.086;2022-09-09T17:59:16;19.68;73.41